createdAt,value
2023-01-19T00:00:53.755Z,99315.62
2023-01-19T00:03:21.549Z,99317.02
2023-01-19T00:05:48.481Z,99321.79
2023-01-19T00:08:15.577Z,99315.66
2023-01-19T00:10:44.749Z,99311.15
2023-01-19T00:13:14.575Z,99311.86
2023-01-19T00:15:41.433Z,99315.59
2023-01-19T00:18:10.599Z,99319.28
2023-01-19T00:20:38.729Z,99312.73
2023-01-19T00:23:08.169Z,99311.74
2023-01-19T00:25:35.456Z,99316.36
2023-01-19T00:28:02.308Z,99314.77
2023-01-19T00:30:29.476Z,99315.34
2023-01-19T00:32:56.161Z,99317.64
2023-01-19T00:35:23.197Z,99309.37
2023-01-19T00:37:50.389Z,99313.16
2023-01-19T00:40:17.654Z,99314.19
2023-01-19T00:42:44.644Z,99314.14
2023-01-19T00:45:16.656Z,99310.35
2023-01-19T00:47:43.649Z,99316.39
2023-01-19T00:50:12.920Z,99318.44
2023-01-19T00:52:41.110Z,99329.31
2023-01-19T00:55:09.613Z,99329.94
2023-01-19T00:57:36.589Z,99331.14
2023-01-19T01:00:06.557Z,99329.86
2023-01-19T01:02:33.899Z,99322.77
2023-01-19T01:05:02.837Z,99324.90
2023-01-19T01:07:31.084Z,99327.90
2023-01-19T01:09:57.869Z,99323.95
2023-01-19T01:12:25.302Z,99328.58
2023-01-19T01:14:52.242Z,99332.41
2023-01-19T01:17:24.756Z,99329.39
2023-01-19T01:19:52.281Z,99328.89
2023-01-19T01:22:19.592Z,99329.11
2023-01-19T01:24:46.477Z,99328.36
2023-01-19T01:27:13.336Z,99327.48
2023-01-19T01:29:41.226Z,99326.91
2023-01-19T01:32:08.443Z,99329.24
2023-01-19T01:34:35.936Z,99337.11
2023-01-19T01:37:02.978Z,99339.88
2023-01-19T01:39:29.781Z,99340.60
2023-01-19T01:41:57.560Z,99336.80
2023-01-19T01:44:53.616Z,99338.24
2023-01-19T01:47:23.706Z,99333.30
2023-01-19T01:50:03.117Z,99331.50
2023-01-19T01:52:34.312Z,99326.04
2023-01-19T01:55:07.089Z,99327.30
2023-01-19T01:57:41.319Z,99328.88
2023-01-19T02:00:08.981Z,99322.32
2023-01-19T02:02:52.354Z,99321.83
2023-01-19T02:05:26.890Z,99320.02
2023-01-19T02:08:19.243Z,99314.15
2023-01-19T02:11:05.512Z,99305.27
2023-01-19T02:13:36.352Z,99312.90
2023-01-19T02:16:08.938Z,99311.15
2023-01-19T02:18:37.588Z,99312.00
2023-01-19T02:21:13.547Z,99308.15
2023-01-19T02:23:58.308Z,99305.46
2023-01-19T02:26:31.462Z,99321.91
2023-01-19T02:29:05.509Z,99326.27
2023-01-19T02:31:34.378Z,99313.23
2023-01-19T02:34:03.038Z,99318.95
2023-01-19T02:36:54.403Z,99322.73
2023-01-19T02:39:29.168Z,99316.84
2023-01-19T02:42:03.234Z,99313.68
2023-01-19T02:44:31.511Z,99313.23
2023-01-19T02:46:58.079Z,99307.34
2023-01-19T02:49:28.971Z,99305.39
2023-01-19T02:51:56.193Z,99304.00
2023-01-19T02:54:31.778Z,99304.77
2023-01-19T02:57:24.807Z,99302.80
2023-01-19T03:00:17.745Z,99310.05
2023-01-19T03:03:19.887Z,99315.56
2023-01-19T03:05:54.143Z,99319.04
2023-01-19T03:08:34.297Z,99319.02
2023-01-19T03:11:10.311Z,99320.42
2023-01-19T03:14:09.000Z,99321.03
2023-01-19T03:16:38.802Z,99326.75
2023-01-19T03:19:12.413Z,99326.75
2023-01-19T03:21:42.743Z,99330.13
2023-01-19T03:24:12.305Z,99326.34
2023-01-19T03:26:47.352Z,99322.83
2023-01-19T03:29:16.358Z,99332.02
2023-01-19T03:31:46.356Z,99333.70
2023-01-19T03:34:16.146Z,99327.02
2023-01-19T03:36:46.562Z,99331.28
2023-01-19T03:39:18.047Z,99329.90
2023-01-19T03:41:48.772Z,99326.07
2023-01-19T03:44:16.696Z,99327.21
2023-01-19T03:46:45.827Z,99333.98
2023-01-19T03:49:13.143Z,99325.29
2023-01-19T03:51:40.286Z,99326.15
2023-01-19T03:54:07.617Z,99330.23
2023-01-19T03:56:34.927Z,99327.01
2023-01-19T03:59:01.780Z,99332.53
2023-01-19T04:01:28.842Z,99331.36
2023-01-19T04:03:55.888Z,99333.23
2023-01-19T04:06:23.149Z,99334.29
2023-01-19T04:08:51.905Z,99330.14
2023-01-19T04:11:18.814Z,99329.12
2023-01-19T04:13:45.780Z,99328.43
2023-01-19T04:16:12.796Z,99323.18
2023-01-19T04:18:42.193Z,99321.28
2023-01-19T04:21:09.254Z,99321.04
2023-01-19T04:23:36.567Z,99321.68
2023-01-19T04:26:06.440Z,99327.73
2023-01-19T04:28:39.516Z,99326.65
2023-01-19T04:31:06.932Z,99330.38
2023-01-19T04:33:34.410Z,99327.60
2023-01-19T04:36:01.715Z,99336.73
2023-01-19T04:38:28.926Z,99331.66
2023-01-19T04:40:56.199Z,99332.74
2023-01-19T04:43:23.957Z,99330.12
2023-01-19T04:45:51.485Z,99331.28
2023-01-19T04:48:18.863Z,99327.13
2023-01-19T04:50:48.633Z,99322.94
2023-01-19T04:53:16.534Z,99321.77
2023-01-19T04:55:43.522Z,99315.61
2023-01-19T04:58:10.436Z,99317.05
2023-01-19T05:00:39.421Z,99314.38
2023-01-19T05:03:06.309Z,99312.34
2023-01-19T05:05:36.166Z,99316.20
2023-01-19T05:08:03.272Z,99319.05
2023-01-19T05:10:30.643Z,99310.52
2023-01-19T05:12:58.192Z,99316.73
2023-01-19T05:15:25.752Z,99322.56
2023-01-19T05:17:57.975Z,99322.02
2023-01-19T05:20:25.990Z,99323.25
2023-01-19T05:22:53.882Z,99324.73
2023-01-19T05:25:21.107Z,99326.13
2023-01-19T05:27:48.035Z,99321.71
2023-01-19T05:30:15.362Z,99317.59
2023-01-19T05:32:42.447Z,99325.82
2023-01-19T05:35:10.013Z,99326.98
2023-01-19T05:37:36.845Z,99331.95
2023-01-19T05:40:07.441Z,99336.05
2023-01-19T05:42:34.361Z,99340.84
2023-01-19T05:45:01.601Z,99339.73
2023-01-19T05:47:31.622Z,99339.41
2023-01-19T05:49:58.655Z,99336.59
2023-01-19T05:52:26.025Z,99330.55
2023-01-19T05:54:55.044Z,99329.77
2023-01-19T05:57:24.975Z,99327.69
2023-01-19T05:59:52.026Z,99329.02
2023-01-19T06:02:19.236Z,99325.13
2023-01-19T06:04:46.289Z,99324.78
2023-01-19T06:07:13.480Z,99329.23
2023-01-19T06:09:40.292Z,99322.94
2023-01-19T06:12:07.352Z,99325.64
2023-01-19T06:14:41.550Z,99324.51
2023-01-19T06:17:08.725Z,99323.77
2023-01-19T06:19:35.833Z,99323.22
2023-01-19T06:22:02.864Z,99325.30
2023-01-19T06:24:30.261Z,99331.90
2023-01-19T06:26:57.234Z,99332.85
2023-01-19T06:29:25.410Z,99330.27
2023-01-19T06:31:54.844Z,99337.19
2023-01-19T06:34:22.271Z,99341.50
2023-01-19T06:36:50.674Z,99336.20
2023-01-19T06:39:17.958Z,99341.48
2023-01-19T06:41:45.137Z,99339.70
2023-01-19T06:44:12.051Z,99333.98
2023-01-19T06:46:39.222Z,99340.78
2023-01-19T06:49:06.128Z,99348.09
2023-01-19T06:51:32.909Z,99347.48
2023-01-19T06:53:59.787Z,99348.13
2023-01-19T06:56:26.481Z,99349.08
2023-01-19T06:58:54.324Z,99355.26
2023-01-19T07:01:21.772Z,99355.90
2023-01-19T07:03:48.540Z,99359.25
2023-01-19T07:06:15.365Z,99368.41
2023-01-19T07:08:42.381Z,99368.37
2023-01-19T07:11:24.733Z,99371.35
2023-01-19T07:13:58.384Z,99369.23
2023-01-19T07:16:25.462Z,99366.56
2023-01-19T07:18:53.035Z,99366.52
2023-01-19T07:21:20.519Z,99371.11
2023-01-19T07:23:53.887Z,99367.92
2023-01-19T07:26:22.223Z,99375.25
2023-01-19T07:28:52.378Z,99376.33
2023-01-19T07:31:20.055Z,99384.41
2023-01-19T07:33:47.207Z,99383.93
2023-01-19T07:36:14.713Z,99383.65
2023-01-19T07:38:41.958Z,99390.48
2023-01-19T07:41:10.093Z,99386.24
2023-01-19T07:43:37.136Z,99396.16
2023-01-19T07:46:06.331Z,99395.85
2023-01-19T07:48:33.619Z,99398.59
2023-01-19T07:51:01.844Z,99399.71
2023-01-19T07:53:28.801Z,99398.39
2023-01-19T07:55:59.305Z,99396.15
2023-01-19T07:58:26.666Z,99396.88
2023-01-19T08:00:53.734Z,99400.71
2023-01-19T08:03:20.776Z,99401.67
2023-01-19T08:05:52.176Z,99403.50
2023-01-19T08:08:19.491Z,99405.45
2023-01-19T08:10:49.856Z,99408.00
2023-01-19T08:13:16.698Z,99408.11
2023-01-19T08:15:44.038Z,99411.85
2023-01-19T08:18:11.757Z,99407.25
2023-01-19T08:20:38.751Z,99408.98
2023-01-19T08:23:05.662Z,99409.11
2023-01-19T08:25:34.232Z,99411.40
2023-01-19T08:28:01.615Z,99415.20
2023-01-19T08:30:28.410Z,99412.86
2023-01-19T08:32:58.088Z,99411.38
2023-01-19T08:35:25.378Z,99407.61
2023-01-19T08:37:52.422Z,99408.40
2023-01-19T08:40:19.712Z,99411.68
2023-01-19T08:42:46.514Z,99418.60
2023-01-19T08:45:13.538Z,99416.13
2023-01-19T08:47:40.501Z,99416.22
2023-01-19T08:50:07.888Z,99416.71
2023-01-19T08:52:34.583Z,99416.83
2023-01-19T08:55:04.889Z,99419.77
2023-01-19T08:57:31.848Z,99417.19
2023-01-19T09:00:00.953Z,99419.30
2023-01-19T09:02:28.305Z,99421.14
2023-01-19T09:04:55.393Z,99423.81
2023-01-19T09:07:22.125Z,99434.31
2023-01-19T09:09:48.754Z,99435.62
2023-01-19T09:12:16.556Z,99437.23
2023-01-19T09:14:43.621Z,99443.29
2023-01-19T09:17:10.503Z,99440.32
2023-01-19T09:19:37.119Z,99443.89
2023-01-19T09:22:04.421Z,99453.58
2023-01-19T09:24:31.210Z,99460.88
2023-01-19T09:26:58.259Z,99457.61
2023-01-19T09:29:25.702Z,99459.70
2023-01-19T09:31:53.030Z,99463.91
2023-01-19T09:34:21.015Z,99466.00
2023-01-19T09:36:48.225Z,99471.67
2023-01-19T09:39:15.073Z,99470.27
2023-01-19T09:41:47.303Z,99477.48
2023-01-19T09:44:32.131Z,99473.64
2023-01-19T09:47:00.780Z,99478.58
2023-01-19T09:49:41.624Z,99478.35
2023-01-19T09:52:13.330Z,99479.45
2023-01-19T09:54:52.988Z,99481.26
2023-01-19T09:57:26.885Z,99483.15
2023-01-19T09:59:59.394Z,99491.16
2023-01-19T10:02:32.016Z,99492.65
2023-01-19T10:05:00.273Z,99495.54
2023-01-19T10:07:36.603Z,99497.48
2023-01-19T10:10:13.129Z,99500.42
2023-01-19T10:12:56.121Z,99501.27
2023-01-19T10:15:49.197Z,99502.20
2023-01-19T10:18:39.910Z,99507.20
2023-01-19T10:21:14.811Z,99501.50
2023-01-19T10:23:57.241Z,99505.10
2023-01-19T10:26:33.836Z,99506.64
2023-01-19T10:29:22.129Z,99504.11
2023-01-19T10:31:52.136Z,99505.02
2023-01-19T10:34:23.195Z,99502.88
2023-01-19T10:36:57.863Z,99501.63
2023-01-19T10:39:25.109Z,99510.84
2023-01-19T10:41:53.454Z,99506.51
2023-01-19T10:44:36.799Z,99505.00
2023-01-19T10:47:06.337Z,99503.20
2023-01-19T10:49:39.072Z,99505.19
2023-01-19T10:52:08.070Z,99504.95
2023-01-19T10:54:37.321Z,99503.92
2023-01-19T10:57:07.599Z,99502.66
2023-01-19T10:59:49.557Z,99498.02
2023-01-19T11:02:27.857Z,99500.59
2023-01-19T11:05:21.667Z,99504.55
2023-01-19T11:07:48.894Z,99503.98
2023-01-19T11:10:15.874Z,99498.98
2023-01-19T11:12:45.916Z,99505.27
2023-01-19T11:15:21.457Z,99505.48
2023-01-19T11:17:48.957Z,99508.19
2023-01-19T11:20:20.307Z,99507.64
2023-01-19T11:22:48.826Z,99514.36
2023-01-19T11:25:32.061Z,99515.80
2023-01-19T11:27:59.196Z,99510.70
2023-01-19T11:30:27.076Z,99516.70
2023-01-19T11:32:54.479Z,99514.16
2023-01-19T11:35:41.607Z,99516.99
2023-01-19T11:38:23.769Z,99514.46
2023-01-19T11:41:04.134Z,99512.48
2023-01-19T11:43:47.417Z,99507.80
2023-01-19T11:46:16.414Z,99516.17
2023-01-19T11:48:57.474Z,99513.36
2023-01-19T11:51:30.545Z,99515.05
2023-01-19T11:53:57.433Z,99514.66
2023-01-19T11:56:28.945Z,99515.29
2023-01-19T11:58:56.371Z,99519.17
2023-01-19T12:01:24.635Z,99526.16
2023-01-19T12:04:14.319Z,99531.02
2023-01-19T12:06:44.777Z,99526.88
2023-01-19T12:09:23.457Z,99530.20
2023-01-19T12:11:57.448Z,99529.46
2023-01-19T12:14:31.501Z,99527.77
2023-01-19T12:17:03.250Z,99534.47
2023-01-19T12:19:42.255Z,99534.58
2023-01-19T12:22:15.218Z,99535.15
2023-01-19T12:24:58.660Z,99542.27
2023-01-19T12:27:40.777Z,99541.37
2023-01-19T12:30:21.075Z,99541.20
2023-01-19T12:32:48.080Z,99543.70
2023-01-19T12:36:00.766Z,99547.55
2023-01-19T12:38:56.670Z,99545.81
2023-01-19T12:41:41.004Z,99553.61
2023-01-19T12:44:10.983Z,99557.75
2023-01-19T12:46:42.705Z,99559.13
2023-01-19T12:49:26.977Z,99559.48
2023-01-19T12:52:28.112Z,99562.33
2023-01-19T12:55:14.130Z,99567.42
2023-01-19T12:57:47.097Z,99572.10
2023-01-19T13:00:23.524Z,99570.50
2023-01-19T13:03:00.146Z,99570.52
2023-01-19T13:05:33.607Z,99572.25
2023-01-19T13:08:03.417Z,99579.90
2023-01-19T13:11:02.163Z,99589.49
2023-01-19T13:13:31.220Z,99595.39
2023-01-19T13:16:27.685Z,99590.24
2023-01-19T13:19:05.510Z,99588.86
2023-01-19T13:21:44.841Z,99587.14
2023-01-19T13:24:15.097Z,99594.01
2023-01-19T13:26:51.080Z,99591.55
2023-01-19T13:29:35.610Z,99590.29
2023-01-19T13:32:06.518Z,99591.28
2023-01-19T13:34:42.553Z,99592.77
2023-01-19T13:37:18.478Z,99592.84
2023-01-19T13:39:49.895Z,99599.36
2023-01-19T13:42:36.985Z,99603.45
2023-01-19T13:45:16.104Z,99603.73
2023-01-19T13:47:46.811Z,99605.78
2023-01-19T13:50:21.921Z,99610.11
2023-01-19T13:52:53.902Z,99610.52
2023-01-19T13:55:21.911Z,99615.63
2023-01-19T13:57:50.369Z,99621.11
2023-01-19T14:00:18.940Z,99621.64
2023-01-19T14:02:54.269Z,99621.89
2023-01-19T14:05:24.500Z,99628.09
2023-01-19T14:08:14.926Z,99633.23
2023-01-19T14:10:53.577Z,99637.23
2023-01-19T14:13:27.217Z,99637.39
2023-01-19T14:15:59.478Z,99642.84
2023-01-19T14:18:32.598Z,99646.44
2023-01-19T14:21:08.863Z,99644.71
2023-01-19T14:23:35.437Z,99645.66
2023-01-19T14:26:02.157Z,99649.58
2023-01-19T14:28:39.416Z,99651.30
2023-01-19T14:31:20.710Z,99655.27
2023-01-19T14:33:51.353Z,99653.42
2023-01-19T14:36:21.562Z,99659.89
2023-01-19T14:38:50.171Z,99660.32
2023-01-19T14:41:32.644Z,99660.46
2023-01-19T14:44:00.485Z,99662.36
2023-01-19T14:46:27.306Z,99662.17
2023-01-19T14:49:01.151Z,99668.05
2023-01-19T14:51:29.511Z,99671.86
2023-01-19T14:53:59.364Z,99674.73
2023-01-19T14:56:31.928Z,99677.23
2023-01-19T14:59:00.801Z,99679.55
2023-01-19T15:01:29.473Z,99684.59
2023-01-19T15:03:59.355Z,99683.25
2023-01-19T15:06:26.607Z,99688.73
2023-01-19T15:08:53.859Z,99691.36
2023-01-19T15:11:33.015Z,99698.42
2023-01-19T15:14:00.344Z,99703.38
2023-01-19T15:16:29.093Z,99707.16
2023-01-19T15:18:56.203Z,99709.08
2023-01-19T15:21:26.635Z,99711.20
2023-01-19T15:23:54.765Z,99718.15
2023-01-19T15:26:26.321Z,99716.92
2023-01-19T15:28:53.726Z,99723.52
2023-01-19T15:31:23.521Z,99727.55
2023-01-19T15:33:50.615Z,99736.54
2023-01-19T15:36:22.286Z,99741.39
2023-01-19T15:38:52.210Z,99743.17
2023-01-19T15:41:29.943Z,99751.55
2023-01-19T15:43:57.107Z,99752.04
2023-01-19T15:46:25.754Z,99758.88
2023-01-19T15:48:54.145Z,99762.63
2023-01-19T15:51:23.364Z,99764.52
2023-01-19T15:53:50.227Z,99767.27
2023-01-19T15:56:26.343Z,99769.36
2023-01-19T15:58:53.843Z,99769.27
2023-01-19T16:01:23.328Z,99773.27
2023-01-19T16:03:51.254Z,99776.02
2023-01-19T16:06:18.452Z,99776.35
2023-01-19T16:08:45.650Z,99778.82
2023-01-19T16:11:15.108Z,99782.77
2023-01-19T16:13:46.155Z,99784.42
2023-01-19T16:16:16.659Z,99787.78
2023-01-19T16:18:43.755Z,99787.50
2023-01-19T16:21:10.764Z,99788.10
2023-01-19T16:23:38.011Z,99789.88
2023-01-19T16:26:22.936Z,99788.58
2023-01-19T16:28:49.728Z,99796.22
2023-01-19T16:31:16.671Z,99798.48
2023-01-19T16:33:45.188Z,99800.81
2023-01-19T16:36:31.667Z,99801.31
2023-01-19T16:39:03.797Z,99803.34
2023-01-19T16:41:31.156Z,99806.38
2023-01-19T16:43:58.417Z,99811.44
2023-01-19T16:46:35.154Z,99813.87
2023-01-19T16:49:22.979Z,99815.32
2023-01-19T16:51:50.754Z,99820.92
2023-01-19T16:54:20.791Z,99821.73
2023-01-19T16:56:48.589Z,99823.77
2023-01-19T16:59:17.417Z,99826.24
2023-01-19T17:01:45.506Z,99825.04
2023-01-19T17:04:13.435Z,99826.44
2023-01-19T17:06:40.601Z,99826.27
2023-01-19T17:09:09.401Z,99825.30
2023-01-19T17:11:37.075Z,99829.79
2023-01-19T17:14:07.222Z,99832.81
2023-01-19T17:16:35.265Z,99837.36
2023-01-19T17:19:04.531Z,99842.91
2023-01-19T17:21:35.105Z,99846.02
2023-01-19T17:24:01.954Z,99849.09
2023-01-19T17:26:30.997Z,99849.02
2023-01-19T17:29:02.904Z,99854.38
2023-01-19T17:31:31.999Z,99857.46
2023-01-19T17:33:59.986Z,99860.09
2023-01-19T17:36:28.939Z,99865.60
2023-01-19T17:38:58.106Z,99867.92
2023-01-19T17:41:27.405Z,99866.95
2023-01-19T17:43:55.031Z,99874.54
2023-01-19T17:46:24.342Z,99877.83
2023-01-19T17:48:58.733Z,99881.08
2023-01-19T17:51:26.347Z,99884.87
2023-01-19T17:53:53.575Z,99887.96
2023-01-19T17:56:22.476Z,99889.61
2023-01-19T17:58:49.946Z,99888.92
2023-01-19T18:01:19.392Z,99893.98
2023-01-19T18:03:46.500Z,99897.04
2023-01-19T18:06:14.091Z,99896.96
2023-01-19T18:08:46.249Z,99895.02
2023-01-19T18:11:13.965Z,99896.32
2023-01-19T18:13:44.006Z,99899.19
2023-01-19T18:16:13.912Z,99903.98
2023-01-19T18:18:41.387Z,99901.39
2023-01-19T18:21:10.256Z,99907.34
2023-01-19T18:23:37.328Z,99909.78
2023-01-19T18:26:06.827Z,99911.87
2023-01-19T18:28:33.903Z,99919.56
2023-01-19T18:31:01.191Z,99918.85
2023-01-19T18:33:28.797Z,99925.52
2023-01-19T18:35:55.523Z,99931.66
2023-01-19T18:38:22.414Z,99931.66
2023-01-19T18:40:48.922Z,99932.42
2023-01-19T18:43:16.400Z,99934.38
2023-01-19T18:45:46.980Z,99933.45
2023-01-19T18:48:13.890Z,99934.15
2023-01-19T18:50:40.564Z,99936.85
2023-01-19T18:53:07.366Z,99935.34
2023-01-19T18:55:36.291Z,99935.08
2023-01-19T18:58:05.074Z,99932.55
2023-01-19T19:00:32.003Z,99933.09
2023-01-19T19:02:58.649Z,99934.05
2023-01-19T19:05:25.619Z,99933.16
2023-01-19T19:07:52.487Z,99934.64
2023-01-19T19:10:19.309Z,99936.99
2023-01-19T19:12:45.917Z,99937.65
2023-01-19T19:15:13.916Z,99945.66
2023-01-19T19:17:40.536Z,99945.46
2023-01-19T19:20:07.389Z,99949.98
2023-01-19T19:22:34.173Z,99951.95
2023-01-19T19:25:01.031Z,99956.02
2023-01-19T19:27:27.973Z,99954.02
2023-01-19T19:29:54.421Z,99956.05
2023-01-19T19:32:21.545Z,99958.70
2023-01-19T19:34:56.559Z,99962.36
2023-01-19T19:37:23.852Z,99965.40
2023-01-19T19:39:50.904Z,99969.58
2023-01-19T19:42:18.009Z,99973.44
2023-01-19T19:44:44.998Z,99974.64
2023-01-19T19:47:11.979Z,99976.17
2023-01-19T19:49:39.293Z,99982.59
2023-01-19T19:52:06.319Z,99983.17
2023-01-19T19:54:33.285Z,99984.77
2023-01-19T19:57:00.615Z,99985.83
2023-01-19T19:59:27.612Z,99985.84
2023-01-19T20:01:54.680Z,99993.10
2023-01-19T20:04:22.816Z,99991.80
2023-01-19T20:06:49.917Z,99994.63
2023-01-19T20:09:17.197Z,99994.69
2023-01-19T20:11:46.709Z,99996.45
2023-01-19T20:14:14.615Z,99999.58
2023-01-19T20:16:41.552Z,100001.34
2023-01-19T20:19:08.414Z,100005.45
2023-01-19T20:21:37.734Z,100007.89
2023-01-19T20:24:08.110Z,100010.54
2023-01-19T20:26:39.752Z,100011.16
2023-01-19T20:29:07.002Z,100012.34
2023-01-19T20:31:38.143Z,100018.07
2023-01-19T20:34:07.310Z,100022.98
2023-01-19T20:36:34.967Z,100022.19
2023-01-19T20:39:08.359Z,100031.05
2023-01-19T20:41:38.847Z,100031.44
2023-01-19T20:44:05.890Z,100030.31
2023-01-19T20:46:32.577Z,100031.42
2023-01-19T20:48:59.478Z,100032.14
2023-01-19T20:51:27.025Z,100037.46
2023-01-19T20:53:53.943Z,100041.11
2023-01-19T20:56:21.085Z,100043.45
2023-01-19T20:58:47.880Z,100048.20
2023-01-19T21:01:18.759Z,100048.34
2023-01-19T21:03:45.761Z,100048.73
2023-01-19T21:06:13.717Z,100049.48
2023-01-19T21:08:41.151Z,100054.08
2023-01-19T21:11:09.319Z,100056.30
2023-01-19T21:13:37.069Z,100057.49
2023-01-19T21:16:04.749Z,100061.98
2023-01-19T21:18:31.666Z,100066.46
2023-01-19T21:20:58.797Z,100074.31
2023-01-19T21:23:26.795Z,100074.60
2023-01-19T21:25:57.740Z,100077.77
2023-01-19T21:28:25.709Z,100082.38
2023-01-19T21:30:53.726Z,100080.73
2023-01-19T21:33:21.308Z,100085.15
2023-01-19T21:35:56.146Z,100083.25
2023-01-19T21:38:24.347Z,100088.07
2023-01-19T21:40:51.589Z,100093.30
2023-01-19T21:43:20.095Z,100097.42
2023-01-19T21:45:48.394Z,100100.89
2023-01-19T21:48:16.158Z,100101.27
2023-01-19T21:50:43.831Z,100105.44
2023-01-19T21:53:11.485Z,100109.95
2023-01-19T21:55:42.789Z,100105.36
2023-01-19T21:58:09.501Z,100107.73
2023-01-19T22:00:36.353Z,100108.87
2023-01-19T22:03:04.659Z,100112.79
2023-01-19T22:05:36.723Z,100123.20
2023-01-19T22:08:05.089Z,100126.36
2023-01-19T22:10:32.357Z,100129.36
2023-01-19T22:12:59.329Z,100131.26
2023-01-19T22:15:26.570Z,100136.67
2023-01-19T22:17:53.479Z,100140.30
2023-01-19T22:20:20.140Z,100137.96
2023-01-19T22:22:46.606Z,100146.23
2023-01-19T22:25:15.303Z,100151.52
2023-01-19T22:27:42.119Z,100149.95
2023-01-19T22:30:09.457Z,100154.13
2023-01-19T22:32:36.775Z,100157.41
2023-01-19T22:35:03.937Z,100158.02
2023-01-19T22:37:36.287Z,100155.14
2023-01-19T22:40:04.665Z,100158.38
2023-01-19T22:42:31.601Z,100158.80
2023-01-19T22:44:58.427Z,100160.39
2023-01-19T22:47:27.953Z,100161.42
2023-01-19T22:49:57.512Z,100160.27
2023-01-19T22:52:27.336Z,100163.77
2023-01-19T22:54:57.553Z,100164.02
2023-01-19T22:57:33.571Z,100169.15
2023-01-19T23:00:07.144Z,100169.42
2023-01-19T23:02:34.140Z,100173.85
2023-01-19T23:05:01.042Z,100174.69
2023-01-19T23:07:28.115Z,100173.71
2023-01-19T23:09:54.692Z,100173.23
2023-01-19T23:12:21.655Z,100173.58
2023-01-19T23:14:48.538Z,100175.04
2023-01-19T23:17:15.204Z,100178.52
2023-01-19T23:19:42.426Z,100179.19
2023-01-19T23:22:09.271Z,100181.65
2023-01-19T23:24:36.140Z,100183.60
2023-01-19T23:27:02.948Z,100188.85
2023-01-19T23:29:30.003Z,100190.88
2023-01-19T23:31:56.942Z,100192.10
2023-01-19T23:34:23.932Z,100191.98
2023-01-19T23:36:51.132Z,100193.92
2023-01-19T23:39:21.898Z,100196.18
2023-01-19T23:41:49.448Z,100199.14
2023-01-19T23:44:17.159Z,100196.27
2023-01-19T23:46:44.456Z,100198.99
2023-01-19T23:49:12.105Z,100194.96
2023-01-19T23:51:39.410Z,100197.52
2023-01-19T23:54:06.301Z,100199.15
2023-01-19T23:56:36.063Z,100202.14
2023-01-19T23:59:08.668Z,100206.86
